^^
Station Historical Data
Daily Summary for February 2, 2017 Units:  English    Metric   Both
« Previous Day
Next Day »
Daily Weekly Monthly Yearly Custom
  High: Low: Average:
Temperature: 41.9 °F 25.7 °F 33.3 °F
Dew Point: 30.0 °F 8.8 °F 22.9 °F
Humidity: 86 % 42 % 67 %
Wind Speed: 14.7 mph 0.0 mph 4.4 mph
Wind Gust: 25.3 mph - -
Wind:- - West
Pressure: 30.26 in 30.06 in -
Precipitation: 0.00 in    
Historical Graphs
 
 
Tabular Data for February 2, 2017
Time Temperature Dew Point Pressure Wind Wind Speed Wind Gust Humidity Rainfall Rate (Hourly) solar Conditions
00:04 29.9 °F 24.2 °F 30.08 in Calm     79 % 0.00 in 0.0 W/m2 RA
00:09 29.7 °F 24.0 °F 30.08 in Calm     79 % 0.00 in 0.0 W/m2 RA
00:14 29.5 °F 24.1 °F 30.08 in Calm     80 % 0.00 in 0.0 W/m2 CLR
00:19 29.3 °F 23.9 °F 30.08 in Calm     80 % 0.00 in 0.0 W/m2 CLR
00:25 29.1 °F 23.7 °F 30.07 in Calm     80 % 0.00 in 0.0 W/m2 CLR
00:30 28.6 °F 23.5 °F 30.07 in Calm     81 % 0.00 in 0.0 W/m2 CLR
00:35 28.6 °F 23.5 °F 30.07 in Calm     81 % 0.00 in 0.0 W/m2 CLR
00:40 28.6 °F 23.5 °F 30.06 in Calm     81 % 0.00 in 0.0 W/m2 CLR
00:45 28.5 °F 23.7 °F 30.07 in Calm     82 % 0.00 in 0.0 W/m2 CLR
00:50 28.2 °F 23.4 °F 30.07 in Calm   1.2 mph 82 % 0.00 in 0.0 W/m2 CLR
00:55 28.1 °F 23.3 °F 30.07 in Calm     82 % 0.00 in 0.0 W/m2 CLR
01:00 28.0 °F 23.5 °F 30.07 in Calm     83 % 0.00 in 0.0 W/m2 CLR
01:05 28.1 °F 23.6 °F 30.07 in Calm     83 % 0.00 in 0.0 W/m2 CLR
01:10 28.2 °F 23.7 °F 30.07 in Calm     83 % 0.00 in 0.0 W/m2 CLR
01:15 28.2 °F 23.7 °F 30.07 in Calm     83 % 0.00 in 0.0 W/m2 CLR
01:20 28.0 °F 23.5 °F 30.07 in Calm     83 % 0.00 in 0.0 W/m2 CLR
01:25 28.0 °F 23.5 °F 30.07 in Calm     83 % 0.00 in 0.0 W/m2 CLR
01:30 28.0 °F 23.5 °F 30.07 in Calm     83 % 0.00 in 0.0 W/m2 CLR
01:35 27.9 °F 23.4 °F 30.07 in Calm     83 % 0.00 in 0.0 W/m2 CLR
01:40 27.9 °F 23.7 °F 30.07 in Calm     84 % 0.00 in 0.0 W/m2 CLR
01:45 27.6 °F 23.1 °F 30.06 in Calm     83 % 0.00 in 0.0 W/m2 CLR
01:50 27.2 °F 22.7 °F 30.07 in West 0.5 mph 2.3 mph 83 % 0.00 in 0.0 W/m2 CLR
01:55 27.5 °F 23.3 °F 30.07 in West 0.6 mph 2.3 mph 84 % 0.00 in 0.0 W/m2 CLR
02:00 27.6 °F 23.4 °F 30.07 in Calm     84 % 0.00 in 0.0 W/m2 CLR
02:05 27.6 °F 23.4 °F 30.07 in Calm     84 % 0.00 in 0.0 W/m2 CLR
02:10 27.8 °F 23.6 °F 30.07 in Calm     84 % 0.00 in 0.0 W/m2 CLR
02:15 27.6 °F 23.4 °F 30.08 in Calm     84 % 0.00 in 0.0 W/m2 CLR
02:20 27.5 °F 23.3 °F 30.08 in Calm     84 % 0.00 in 0.0 W/m2 CLR
02:25 27.3 °F 23.1 °F 30.08 in Calm     84 % 0.00 in 0.0 W/m2 CLR
02:30 27.3 °F 23.1 °F 30.08 in Calm     84 % 0.00 in 0.0 W/m2 CLR
02:35 27.2 °F 23.0 °F 30.09 in Calm     84 % 0.00 in 0.0 W/m2 CLR
02:40 27.3 °F 23.1 °F 30.08 in Calm     84 % 0.00 in 0.0 W/m2 CLR
02:45 27.4 °F 23.2 °F 30.07 in Calm     84 % 0.00 in 0.0 W/m2 CLR
02:50 27.5 °F 23.3 °F 30.07 in Calm     84 % 0.00 in 0.0 W/m2 CLR
02:55 27.1 °F 22.9 °F 30.07 in Calm     84 % 0.00 in 0.0 W/m2 CLR
03:00 26.9 °F 22.7 °F 30.07 in Calm     84 % 0.00 in 0.0 W/m2 CLR
03:05 26.8 °F 22.6 °F 30.08 in Calm     84 % 0.00 in 0.0 W/m2 CLR
03:10 26.6 °F 22.7 °F 30.08 in Calm     85 % 0.00 in 0.0 W/m2 CLR
03:15 26.5 °F 22.6 °F 30.08 in Calm     85 % 0.00 in 0.0 W/m2 CLR
03:20 26.3 °F 22.4 °F 30.08 in Calm     85 % 0.00 in 0.0 W/m2 CLR
03:25 26.3 °F 22.4 °F 30.07 in Calm     85 % 0.00 in 0.0 W/m2 CLR
03:30 26.4 °F 22.8 °F 30.07 in Calm     86 % 0.00 in 0.0 W/m2 CLR
03:35 26.6 °F 23.0 °F 30.08 in Calm     86 % 0.00 in 0.0 W/m2 CLR
03:40 26.4 °F 22.5 °F 30.08 in Calm     85 % 0.00 in 0.0 W/m2 CLR
03:45 25.8 °F 21.9 °F 30.08 in Calm     85 % 0.00 in 0.0 W/m2 CLR
03:50 25.7 °F 22.1 °F 30.08 in Calm     86 % 0.00 in 0.0 W/m2 CLR
03:55 25.8 °F 22.2 °F 30.08 in Calm     86 % 0.00 in 0.0 W/m2 CLR
04:00 25.9 °F 22.3 °F 30.09 in Calm     86 % 0.00 in 0.0 W/m2 CLR
04:05 26.2 °F 22.6 °F 30.09 in Calm     86 % 0.00 in 0.0 W/m2 CLR
04:10 26.4 °F 22.8 °F 30.09 in Calm     86 % 0.00 in 0.0 W/m2 CLR
04:16 26.5 °F 22.9 °F 30.09 in Calm     86 % 0.00 in 0.0 W/m2 CLR
04:21 26.6 °F 23.0 °F 30.09 in Calm     86 % 0.00 in 0.0 W/m2 CLR
04:26 26.6 °F 23.0 °F 30.09 in West 0.6 mph 1.0 mph 86 % 0.00 in 0.0 W/m2 CLR
04:31 26.7 °F 23.1 °F 30.09 in West 0.6 mph 2.3 mph 86 % 0.00 in 0.0 W/m2 CLR
04:36 26.7 °F 23.1 °F 30.08 in Calm     86 % 0.00 in 0.0 W/m2 CLR
04:41 26.7 °F 23.1 °F 30.09 in West 0.9 mph 2.3 mph 86 % 0.00 in 0.0 W/m2 CLR
04:46 26.8 °F 23.2 °F 30.09 in Calm     86 % 0.00 in 0.0 W/m2 CLR
04:51 27.0 °F 23.4 °F 30.08 in Calm     86 % 0.00 in 0.0 W/m2 CLR
04:56 27.2 °F 23.6 °F 30.08 in Calm     86 % 0.00 in 0.0 W/m2 CLR
05:01 27.3 °F 23.7 °F 30.08 in Calm     86 % 0.00 in 0.0 W/m2 CLR
05:06 27.6 °F 24.0 °F 30.08 in Calm     86 % 0.00 in 0.0 W/m2 CLR
05:11 27.7 °F 24.1 °F 30.08 in West 2.7 mph 3.5 mph 86 % 0.00 in 0.0 W/m2 CLR
05:16 27.8 °F 24.2 °F 30.07 in West 0.5 mph 2.3 mph 86 % 0.00 in 0.0 W/m2 CLR
05:21 28.0 °F 24.4 °F 30.08 in Calm     86 % 0.00 in 0.0 W/m2 CLR
05:26 28.3 °F 24.6 °F 30.08 in West 0.3 mph 1.2 mph 86 % 0.00 in 0.0 W/m2 CLR
05:31 28.7 °F 25.0 °F 30.08 in West 0.4 mph 2.0 mph 86 % 0.00 in 0.0 W/m2 CLR
05:36 29.1 °F 25.4 °F 30.08 in West 1.8 mph 3.5 mph 86 % 0.00 in 0.0 W/m2 CLR
05:41 29.7 °F 25.7 °F 30.09 in WSW 1.4 mph 3.5 mph 85 % 0.00 in 0.0 W/m2 CLR
05:46 30.1 °F 26.1 °F 30.09 in Calm   1.2 mph 85 % 0.00 in 0.0 W/m2 CLR
05:51 30.5 °F 26.2 °F 30.09 in WSW 2.0 mph 5.0 mph 84 % 0.00 in 0.0 W/m2 CLR
05:56 31.0 °F 26.7 °F 30.09 in SW 1.8 mph 4.0 mph 84 % 0.00 in 0.0 W/m2 CLR
06:01 31.3 °F 27.0 °F 30.09 in WSW 0.8 mph 3.0 mph 84 % 0.00 in 0.0 W/m2 CLR
06:06 31.6 °F 27.0 °F 30.09 in WSW 0.8 mph 3.5 mph 83 % 0.00 in 0.0 W/m2 CLR
06:11 31.9 °F 27.3 °F 30.09 in WSW 0.5 mph 3.5 mph 83 % 0.00 in 0.0 W/m2 CLR
06:16 32.0 °F 27.4 °F 30.09 in WSW 0.9 mph 3.5 mph 83 % 0.00 in 0.0 W/m2 CLR
06:21 32.2 °F 27.6 °F 30.09 in WSW 1.2 mph 3.5 mph 83 % 0.00 in 0.0 W/m2 CLR
06:26 32.3 °F 27.7 °F 30.09 in SW 2.7 mph 3.5 mph 83 % 0.00 in 0.0 W/m2 CLR
06:31 32.4 °F 27.8 °F 30.09 in SW 3.1 mph 5.8 mph 83 % 0.00 in 0.0 W/m2 CLR
06:36 32.5 °F 27.9 °F 30.09 in WSW 3.4 mph 5.0 mph 83 % 0.00 in 0.0 W/m2 CLR
06:41 32.7 °F 28.1 °F 30.09 in SW 1.7 mph 6.9 mph 83 % 0.00 in 0.0 W/m2 CLR
06:46 32.8 °F 28.5 °F 30.09 in WSW 3.4 mph 5.8 mph 84 % 0.00 in 0.0 W/m2 CLR
06:51 32.9 °F 28.6 °F 30.09 in WSW 4.5 mph 4.6 mph 84 % 0.00 in 0.0 W/m2 CLR
06:56 33.0 °F 28.7 °F 30.09 in WSW 6.0 mph 9.2 mph 84 % 0.00 in 0.0 W/m2 CLR
07:01 33.2 °F 29.2 °F 30.10 in WSW 3.5 mph 6.0 mph 85 % 0.00 in 0.0 W/m2 OVC
07:06 33.3 °F 29.3 °F 30.10 in West 3.3 mph 8.1 mph 85 % 0.00 in 0.0 W/m2 OVC
07:11 33.3 °F 29.3 °F 30.10 in West 5.3 mph 9.2 mph 85 % 0.00 in 0.0 W/m2 OVC
07:16 33.1 °F 29.1 °F 30.10 in West 3.0 mph 7.0 mph 85 % 0.00 in 0.0 W/m2 OVC
07:22 33.0 °F 29.0 °F 30.10 in West 3.6 mph 9.2 mph 85 % 0.00 in 0.0 W/m2 OVC
07:27 32.9 °F 28.9 °F 30.11 in WSW 4.1 mph 6.9 mph 85 % 0.00 in 0.0 W/m2 OVC
07:32 32.9 °F 28.9 °F 30.11 in West 2.9 mph 5.8 mph 85 % 0.00 in 5.0 W/m2 SCT
07:37 33.0 °F 29.0 °F 30.11 in West 5.8 mph 11.5 mph 85 % 0.00 in 9.0 W/m2 SCT
07:42 33.1 °F 29.4 °F 30.11 in WSW 5.7 mph 8.1 mph 86 % 0.00 in 21.0 W/m2 CLR
07:47 33.2 °F 29.5 °F 30.11 in West 2.5 mph 6.0 mph 86 % 0.00 in 25.0 W/m2 FEW
07:52 33.4 °F 29.7 °F 30.11 in West 2.8 mph 6.9 mph 86 % 0.00 in 33.0 W/m2 FEW
07:57 33.5 °F 29.8 °F 30.11 in West 4.1 mph 6.9 mph 86 % 0.00 in 40.0 W/m2 FEW
08:02 33.7 °F 30.0 °F 30.11 in West 3.4 mph 6.9 mph 86 % 0.00 in 37.0 W/m2 SCT
08:07 33.9 °F 29.9 °F 30.11 in WNW 4.3 mph 8.1 mph 85 % 0.00 in 47.0 W/m2 SCT
08:12 34.1 °F 29.8 °F 30.11 in West 3.7 mph 6.9 mph 84 % 0.00 in 65.0 W/m2 FEW
08:17 34.4 °F 29.5 °F 30.11 in West 3.2 mph 5.8 mph 82 % 0.00 in 37.0 W/m2 BKN
08:22 34.5 °F 29.3 °F 30.11 in WSW 1.4 mph 4.0 mph 81 % 0.00 in 32.0 W/m2 BKN
08:27 34.5 °F 29.3 °F 30.11 in SSW 1.7 mph 4.0 mph 81 % 0.00 in 33.0 W/m2 OVC
08:32 34.4 °F 28.9 °F 30.11 in SW 1.5 mph 3.5 mph 80 % 0.00 in 63.0 W/m2 BKN
08:37 34.5 °F 28.7 °F 30.11 in WSW 1.1 mph 3.5 mph 79 % 0.00 in 60.0 W/m2 BKN
08:42 34.6 °F 28.8 °F 30.11 in WSW 3.0 mph 4.6 mph 79 % 0.00 in 74.0 W/m2 BKN
08:47 34.8 °F 29.0 °F 30.11 in WSW 1.9 mph 3.5 mph 79 % 0.00 in 76.0 W/m2 BKN
08:52 34.9 °F 29.0 °F 30.12 in SSW 3.1 mph 5.0 mph 79 % 0.00 in 113.0 W/m2 SCT
08:57 34.9 °F 29.4 °F 30.11 in SW 3.2 mph 8.0 mph 80 % 0.00 in 116.0 W/m2 SCT
09:02 35.0 °F 29.5 °F 30.11 in SW 1.1 mph 2.3 mph 80 % 0.00 in 121.0 W/m2 SCT
09:07 35.1 °F 29.6 °F 30.12 in WSW 6.8 mph 11.5 mph 80 % 0.00 in 134.0 W/m2 SCT
09:12 35.2 °F 29.3 °F 30.12 in WSW 7.4 mph 9.2 mph 79 % 0.00 in 171.0 W/m2 FEW
09:18 35.6 °F 29.4 °F 30.12 in West 3.4 mph 7.0 mph 78 % 0.00 in 155.0 W/m2 FEW
09:23 35.7 °F 28.9 °F 30.12 in West 2.3 mph 3.5 mph 76 % 0.00 in 120.0 W/m2 SCT
09:28 35.8 °F 28.3 °F 30.12 in SW 6.2 mph 9.2 mph 74 % 0.00 in 234.0 W/m2 FEW
09:33 36.0 °F 27.8 °F 30.12 in WSW 5.2 mph 9.2 mph 72 % 0.00 in 111.0 W/m2 BKN
09:38 35.9 °F 27.4 °F 30.12 in WSW 2.0 mph 3.5 mph 71 % 0.00 in 107.0 W/m2 BKN
09:43 36.1 °F 27.6 °F 30.12 in SW 2.5 mph 5.8 mph 71 % 0.00 in 243.0 W/m2 FEW
09:48 36.3 °F 27.8 °F 30.12 in WSW 4.4 mph 9.2 mph 71 % 0.00 in 121.0 W/m2 BKN
09:53 36.3 °F 27.8 °F 30.12 in West 3.2 mph 4.6 mph 71 % 0.00 in 116.0 W/m2 BKN
09:58 36.3 °F 28.5 °F 30.12 in WSW 3.6 mph 5.8 mph 73 % 0.00 in 163.0 W/m2 BKN
10:03 36.6 °F 29.1 °F 30.12 in West 2.5 mph 3.5 mph 74 % 0.00 in 427.0 W/m2 CLR
10:08 37.1 °F 29.2 °F 30.12 in WSW 6.4 mph 9.2 mph 73 % 0.00 in 403.0 W/m2 CLR
10:13 37.2 °F 29.3 °F 30.12 in West 2.0 mph 3.5 mph 73 % 0.00 in 352.0 W/m2 CLR
10:18 37.8 °F 29.6 °F 30.12 in SW 5.7 mph 10.4 mph 72 % 0.00 in 325.0 W/m2 CLR
10:23 37.8 °F 28.5 °F 30.12 in SW 4.2 mph 9.2 mph 69 % 0.00 in 183.0 W/m2 SCT
10:28 37.9 °F 28.3 °F 30.12 in WSW 4.4 mph 11.0 mph 68 % 0.00 in 169.0 W/m2 SCT
10:33 37.8 °F 27.5 °F 30.12 in West 7.5 mph 13.8 mph 66 % 0.00 in 190.0 W/m2 SCT
10:38 37.9 °F 27.5 °F 30.12 in WSW 4.8 mph 8.1 mph 66 % 0.00 in 225.0 W/m2 SCT
10:43 38.2 °F 27.8 °F 30.12 in West 5.1 mph 9.2 mph 66 % 0.00 in 322.0 W/m2 FEW
10:48 38.5 °F 28.5 °F 30.11 in WSW 3.1 mph 4.0 mph 67 % 0.00 in 232.0 W/m2 SCT
10:53 38.9 °F 28.5 °F 30.11 in WNW 7.8 mph 10.4 mph 66 % 0.00 in 450.0 W/m2 CLR
10:58 39.1 °F 28.7 °F 30.11 in WNW 5.3 mph 11.5 mph 66 % 0.00 in 348.0 W/m2 FEW
11:03 39.7 °F 29.3 °F 30.11 in West 6.5 mph 11.5 mph 66 % 0.00 in 399.0 W/m2 CLR
11:08 39.9 °F 29.1 °F 30.10 in WSW 5.3 mph 10.4 mph 65 % 0.00 in 387.0 W/m2 CLR
11:13 39.4 °F 28.2 °F 30.11 in WNW 7.5 mph 13.8 mph 64 % 0.00 in 352.0 W/m2 SCT
11:18 39.5 °F 28.3 °F 30.10 in NW 7.9 mph 10.4 mph 64 % 0.00 in 105.0 W/m2 BKN
11:23 39.1 °F 27.6 °F 30.10 in West 6.6 mph 9.2 mph 63 % 0.00 in 65.0 W/m2 OVC
11:28 38.8 °F 27.3 °F 30.10 in West 5.9 mph 10.4 mph 63 % 0.00 in 63.0 W/m2 OVC
11:33 38.8 °F 27.3 °F 30.10 in West 8.2 mph 11.5 mph 63 % 0.00 in 223.0 W/m2 BKN
11:38 38.9 °F 25.8 °F 30.10 in West 7.0 mph 11.5 mph 59 % 0.00 in 127.0 W/m2 BKN
11:43 39.1 °F 25.1 °F 30.10 in West 7.0 mph 15.0 mph 57 % 0.00 in 148.0 W/m2 BKN
11:49 39.4 °F 24.6 °F 30.09 in SW 7.5 mph 11.5 mph 55 % 0.00 in 190.0 W/m2 BKN
11:54 39.4 °F 24.6 °F 30.09 in WNW 10.9 mph 17.3 mph 55 % 0.00 in 197.0 W/m2 BKN
11:59 39.5 °F 24.7 °F 30.09 in West 7.8 mph 13.0 mph 55 % 0.00 in 241.0 W/m2 SCT
12:04 39.6 °F 24.7 °F 30.09 in WSW 10.9 mph 13.8 mph 55 % 0.00 in 250.0 W/m2 SCT
12:09 40.1 °F 24.8 °F 30.09 in West 10.8 mph 15.0 mph 54 % 0.00 in 526.0 W/m2 FEW
12:14 41.0 °F 24.2 °F 30.08 in WSW 6.9 mph 13.8 mph 51 % 0.00 in 661.0 W/m2 CLR
12:19 41.2 °F 23.5 °F 30.08 in WSW 12.6 mph 17.3 mph 49 % 0.00 in 680.0 W/m2 CLR
12:24 41.9 °F 23.1 °F 30.08 in WNW 13.4 mph 25.3 mph 47 % 0.00 in 722.0 W/m2 CLR
12:29 41.6 °F 22.8 °F 30.07 in WSW 11.7 mph 19.6 mph 47 % 0.00 in 206.0 W/m2 BKN
12:34 40.9 °F 22.2 °F 30.08 in West 11.7 mph 16.1 mph 47 % 0.00 in 197.0 W/m2 BKN
12:39 40.4 °F 22.2 °F 30.08 in WSW 12.4 mph 17.3 mph 48 % 0.00 in 176.0 W/m2 BKN
12:44 40.4 °F 21.7 °F 30.07 in West 14.7 mph 18.4 mph 47 % 0.00 in 176.0 W/m2 BKN
12:49 40.3 °F 21.6 °F 30.07 in West 11.9 mph 18.4 mph 47 % 0.00 in 185.0 W/m2 BKN
12:54 40.2 °F 22.1 °F 30.07 in West 10.1 mph 12.7 mph 48 % 0.00 in 183.0 W/m2 BKN
12:59 40.3 °F 22.1 °F 30.07 in WSW 10.2 mph 19.6 mph 48 % 0.00 in 181.0 W/m2 BKN
13:04 40.2 °F 22.5 °F 30.07 in WSW 9.1 mph 11.5 mph 49 % 0.00 in 179.0 W/m2 BKN
13:09 39.9 °F 23.2 °F 30.07 in WSW 8.1 mph 15.0 mph 51 % 0.00 in 202.0 W/m2 BKN
13:14 39.4 °F 23.2 °F 30.07 in SW 9.1 mph 12.7 mph 52 % 0.00 in 334.0 W/m2 SCT
13:19 39.6 °F 23.9 °F 30.07 in WSW 4.2 mph 11.0 mph 53 % 0.00 in 429.0 W/m2 CLR
13:24 39.5 °F 23.8 °F 30.07 in WSW 11.6 mph 15.0 mph 53 % 0.00 in 316.0 W/m2 FEW
13:29 39.4 °F 24.1 °F 30.07 in WSW 8.2 mph 12.7 mph 54 % 0.00 in 234.0 W/m2 SCT
13:34 39.2 °F 23.9 °F 30.06 in WSW 6.5 mph 11.5 mph 54 % 0.00 in 179.0 W/m2 BKN
13:39 39.4 °F 24.6 °F 30.06 in West 3.8 mph 8.1 mph 55 % 0.00 in 599.0 W/m2 CLR
13:44 40.3 °F 25.4 °F 30.06 in SW 6.3 mph 11.5 mph 55 % 0.00 in 404.0 W/m2 CLR
13:49 40.2 °F 25.3 °F 30.06 in SSW 7.1 mph 11.5 mph 55 % 0.00 in 172.0 W/m2 BKN
13:54 39.8 °F 25.4 °F 30.06 in SW 13.2 mph 15.0 mph 56 % 0.00 in 76.0 W/m2 OVC
13:59 39.4 °F 23.2 °F 30.06 in WSW 12.0 mph 21.9 mph 52 % 0.00 in 40.0 W/m2 OVC
14:04 39.3 °F 23.1 °F 30.07 in WNW 10.7 mph 16.0 mph 52 % 0.00 in 42.0 W/m2 OVC
14:09 39.2 °F 23.0 °F 30.07 in West 9.5 mph 12.7 mph 52 % 0.00 in 76.0 W/m2 OVC
14:14 39.5 °F 23.3 °F 30.07 in WNW 6.4 mph 11.5 mph 52 % 0.00 in 330.0 W/m2 SCT
14:19 40.6 °F 23.9 °F 30.07 in West 9.2 mph 11.5 mph 51 % 0.00 in 330.0 W/m2 CLR
14:24 40.7 °F 24.0 °F 30.07 in NW 7.4 mph 15.0 mph 51 % 0.00 in 332.0 W/m2 FEW
14:29 40.5 °F 23.3 °F 30.07 in WNW 11.2 mph 18.4 mph 50 % 0.00 in 163.0 W/m2 BKN
14:34 40.1 °F 23.4 °F 30.07 in West 10.3 mph 15.0 mph 51 % 0.00 in 163.0 W/m2 SCT
14:39 40.2 °F 24.0 °F 30.08 in WNW 7.7 mph 16.1 mph 52 % 0.00 in 239.0 W/m2 CLR
14:45 40.4 °F 24.1 °F 30.08 in West 11.5 mph 13.8 mph 52 % 0.00 in 297.0 W/m2 CLR
14:50 40.8 °F 24.1 °F 30.08 in West 8.0 mph 18.0 mph 51 % 0.00 in 434.0 W/m2 CLR
14:55 41.2 °F 24.0 °F 30.08 in WNW 9.0 mph 18.0 mph 50 % 0.00 in 197.0 W/m2 SCT
15:00 40.0 °F 24.7 °F 30.09 in NW 10.6 mph 19.6 mph 54 % 0.00 in 42.0 W/m2 BKN
15:05 38.7 °F 24.8 °F 30.09 in NW 14.0 mph 20.0 mph 57 % 0.00 in 32.0 W/m2 OVC
15:10 37.9 °F 25.7 °F 30.10 in WNW 12.0 mph 20.0 mph 61 % 0.00 in 165.0 W/m2 SCT
15:15 37.6 °F 26.1 °F 30.10 in WNW 12.5 mph 13.8 mph 63 % 0.00 in 144.0 W/m2 SCT
15:20 37.2 °F 26.5 °F 30.11 in NNW 6.8 mph 13.8 mph 65 % 0.00 in 104.0 W/m2 BKN
15:25 36.5 °F 26.6 °F 30.11 in WNW 11.2 mph 16.1 mph 67 % 0.00 in 40.0 W/m2 OVC
15:30 35.8 °F 27.0 °F 30.11 in WSW 8.0 mph 11.5 mph 70 % 0.00 in 42.0 W/m2 OVC
15:35 35.6 °F 27.1 °F 30.11 in West 3.7 mph 10.4 mph 71 % 0.00 in 69.0 W/m2 BKN
15:40 35.8 °F 27.0 °F 30.11 in West 6.3 mph 12.7 mph 70 % 0.00 in 76.0 W/m2 BKN
15:45 35.9 °F 27.1 °F 30.11 in WSW 3.9 mph 5.8 mph 70 % 0.00 in 114.0 W/m2 BKN
15:50 36.3 °F 27.4 °F 30.12 in SW 4.7 mph 6.9 mph 70 % 0.00 in 260.0 W/m2 CLR
15:55 36.8 °F 27.2 °F 30.12 in WSW 3.8 mph 5.8 mph 68 % 0.00 in 192.0 W/m2 CLR
16:00 37.3 °F 27.0 °F 30.12 in WNW 6.2 mph 11.5 mph 66 % 0.00 in 148.0 W/m2 CLR
16:05 37.3 °F 26.2 °F 30.12 in WSW 5.8 mph 9.2 mph 64 % 0.00 in 72.0 W/m2 BKN
16:10 37.2 °F 26.9 °F 30.12 in SW 3.9 mph 8.1 mph 66 % 0.00 in 144.0 W/m2 CLR
16:15 37.0 °F 27.4 °F 30.12 in WSW 1.9 mph 3.5 mph 68 % 0.00 in 148.0 W/m2 CLR
16:20 37.0 °F 27.4 °F 30.12 in SW 4.0 mph 6.0 mph 68 % 0.00 in 121.0 W/m2 CLR
16:25 37.1 °F 27.5 °F 30.13 in WSW 2.8 mph 8.1 mph 68 % 0.00 in 74.0 W/m2 FEW
16:30 37.1 °F 27.2 °F 30.13 in West 5.2 mph 12.0 mph 67 % 0.00 in 63.0 W/m2 SCT
16:35 37.1 °F 26.8 °F 30.13 in West 3.6 mph 11.5 mph 66 % 0.00 in 97.0 W/m2 CLR
16:40 37.3 °F 25.8 °F 30.13 in West 12.0 mph 16.1 mph 63 % 0.00 in 76.0 W/m2 CLR
16:45 37.5 °F 25.3 °F 30.13 in WNW 7.9 mph 11.5 mph 61 % 0.00 in 54.0 W/m2 CLR
16:50 37.6 °F 25.7 °F 30.14 in NW 7.0 mph 13.0 mph 62 % 0.00 in 70.0 W/m2 CLR
16:55 37.0 °F 26.7 °F 30.14 in WNW 5.2 mph 8.1 mph 66 % 0.00 in 84.0 W/m2 CLR
17:00 36.4 °F 27.2 °F 30.14 in NW 5.6 mph 8.1 mph 69 % 0.00 in 44.0 W/m2 CLR
17:05 36.1 °F 27.3 °F 30.14 in NW 1.6 mph 8.1 mph 70 % 0.00 in 35.0 W/m2 CLR
17:10 35.8 °F 27.0 °F 30.14 in WNW 5.0 mph 8.1 mph 70 % 0.00 in 12.0 W/m2 CLR
17:15 35.6 °F 26.8 °F 30.14 in NW 3.7 mph 6.9 mph 70 % 0.00 in 7.0 W/m2 CLR
17:20 35.4 °F 26.2 °F 30.14 in NW 2.7 mph 6.9 mph 69 % 0.00 in 5.0 W/m2 OVC
17:25 35.3 °F 26.1 °F 30.14 in NW 4.4 mph 10.4 mph 69 % 0.00 in 0.0 W/m2 OVC
17:30 35.3 °F 25.8 °F 30.15 in WNW 4.2 mph 9.0 mph 68 % 0.00 in 0.0 W/m2 OVC
17:35 35.3 °F 25.8 °F 30.15 in WNW 3.0 mph 4.0 mph 68 % 0.00 in 0.0 W/m2 OVC
17:40 35.1 °F 25.2 °F 30.15 in WNW 1.6 mph 3.5 mph 67 % 0.00 in 0.0 W/m2 OVC
17:45 35.0 °F 25.1 °F 30.15 in WNW 3.6 mph 8.1 mph 67 % 0.00 in 0.0 W/m2 OVC
17:50 35.2 °F 24.6 °F 30.15 in WNW 7.1 mph 10.4 mph 65 % 0.00 in 0.0 W/m2 OVC
17:55 35.4 °F 24.0 °F 30.15 in WNW 4.0 mph 8.1 mph 63 % 0.00 in 0.0 W/m2 CLR
18:00 35.5 °F 23.8 °F 30.15 in NW 3.9 mph 4.0 mph 62 % 0.00 in 0.0 W/m2 CLR
18:05 35.4 °F 23.7 °F 30.16 in WNW 1.3 mph 3.5 mph 62 % 0.00 in 0.0 W/m2 CLR
18:10 35.2 °F 23.5 °F 30.16 in WNW 2.0 mph 4.6 mph 62 % 0.00 in 0.0 W/m2 CLR
18:15 35.1 °F 23.0 °F 30.16 in WNW 1.6 mph 3.5 mph 61 % 0.00 in 0.0 W/m2 CLR
18:21 34.9 °F 22.8 °F 30.17 in WNW 0.7 mph 2.3 mph 61 % 0.00 in 0.0 W/m2 CLR
18:26 34.3 °F 23.0 °F 30.17 in Calm     63 % 0.00 in 0.0 W/m2 CLR
18:31 33.8 °F 22.9 °F 30.17 in Calm     64 % 0.00 in 0.0 W/m2 CLR
18:36 33.7 °F 22.1 °F 30.17 in WNW 5.1 mph 9.2 mph 62 % 0.00 in 0.0 W/m2 CLR
18:41 34.1 °F 20.9 °F 30.18 in WNW 3.8 mph 8.1 mph 58 % 0.00 in 0.0 W/m2 CLR
18:46 34.3 °F 20.2 °F 30.18 in WNW 3.5 mph 7.0 mph 56 % 0.00 in 0.0 W/m2 CLR
18:51 34.4 °F 19.5 °F 30.18 in West 4.5 mph 9.2 mph 54 % 0.00 in 0.0 W/m2 CLR
18:56 34.4 °F 19.0 °F 30.18 in WNW 5.7 mph 9.2 mph 53 % 0.00 in 0.0 W/m2 CLR
19:01 34.4 °F 18.6 °F 30.19 in West 3.8 mph 8.1 mph 52 % 0.00 in 0.0 W/m2 CLR
19:06 34.4 °F 18.6 °F 30.19 in West 5.1 mph 9.2 mph 52 % 0.00 in 0.0 W/m2 CLR
19:11 34.2 °F 18.8 °F 30.19 in West 4.1 mph 9.2 mph 53 % 0.00 in 0.0 W/m2 CLR
19:16 33.9 °F 19.4 °F 30.19 in West 2.1 mph 4.0 mph 55 % 0.00 in 0.0 W/m2 CLR
19:21 33.6 °F 20.0 °F 30.19 in WNW 2.7 mph 5.8 mph 57 % 0.00 in 0.0 W/m2 CLR
19:26 33.3 °F 20.1 °F 30.19 in West 3.3 mph 6.9 mph 58 % 0.00 in 0.0 W/m2 CLR
19:31 33.0 °F 20.2 °F 30.20 in West 3.1 mph 5.8 mph 59 % 0.00 in 0.0 W/m2 CLR
19:36 32.9 °F 19.7 °F 30.20 in WSW 3.9 mph 5.8 mph 58 % 0.00 in 0.0 W/m2 CLR
19:41 32.7 °F 19.1 °F 30.20 in West 4.4 mph 6.9 mph 57 % 0.00 in 0.0 W/m2 CLR
19:46 32.7 °F 18.3 °F 30.20 in WSW 5.2 mph 11.5 mph 55 % 0.00 in 0.0 W/m2 CLR
19:51 32.6 °F 17.8 °F 30.21 in WSW 5.5 mph 10.4 mph 54 % 0.00 in 0.0 W/m2 CLR
19:56 32.5 °F 17.2 °F 30.21 in West 6.8 mph 11.5 mph 53 % 0.00 in 0.0 W/m2 CLR
20:01 32.5 °F 17.2 °F 30.22 in West 7.3 mph 10.4 mph 53 % 0.00 in 0.0 W/m2 CLR
20:06 32.3 °F 17.1 °F 30.22 in West 4.8 mph 8.1 mph 53 % 0.00 in 0.0 W/m2 CLR
20:11 32.2 °F 17.0 °F 30.22 in West 4.8 mph 8.1 mph 53 % 0.00 in 0.0 W/m2 CLR
20:16 32.1 °F 16.4 °F 30.22 in West 6.2 mph 11.5 mph 52 % 0.00 in 0.0 W/m2 CLR
20:21 32.1 °F 16.4 °F 30.22 in West 3.9 mph 7.0 mph 52 % 0.00 in 0.0 W/m2 CLR
20:26 32.0 °F 15.9 °F 30.22 in West 8.3 mph 11.5 mph 51 % 0.00 in 0.0 W/m2 CLR
20:31 32.0 °F 15.4 °F 30.22 in WNW 5.6 mph 8.1 mph 50 % 0.00 in 0.0 W/m2 CLR
20:36 32.0 °F 15.0 °F 30.22 in WNW 5.4 mph 9.2 mph 49 % 0.00 in 0.0 W/m2 CLR
20:41 32.0 °F 14.5 °F 30.22 in WSW 7.4 mph 9.0 mph 48 % 0.00 in 0.0 W/m2 CLR
20:46 32.1 °F 13.6 °F 30.22 in WNW 11.9 mph 17.3 mph 46 % 0.00 in 0.0 W/m2 CLR
20:51 32.2 °F 13.2 °F 30.22 in WNW 10.2 mph 12.7 mph 45 % 0.00 in 0.0 W/m2 CLR
20:56 32.2 °F 12.7 °F 30.23 in WNW 8.9 mph 12.7 mph 44 % 0.00 in 0.0 W/m2 CLR
21:01 32.2 °F 12.7 °F 30.23 in WNW 4.8 mph 9.2 mph 44 % 0.00 in 0.0 W/m2 CLR
21:06 32.1 °F 12.6 °F 30.23 in West 6.4 mph 13.8 mph 44 % 0.00 in 0.0 W/m2 CLR
21:11 31.9 °F 12.4 °F 30.23 in West 6.7 mph 8.1 mph 44 % 0.00 in 0.0 W/m2 CLR
21:16 31.8 °F 12.3 °F 30.23 in West 6.1 mph 9.2 mph 44 % 0.00 in 0.0 W/m2 CLR
21:21 31.6 °F 12.2 °F 30.23 in West 5.5 mph 9.2 mph 44 % 0.00 in 0.0 W/m2 CLR
21:26 31.5 °F 12.1 °F 30.23 in West 3.7 mph 11.5 mph 44 % 0.00 in 0.0 W/m2 CLR
21:31 31.4 °F 12.0 °F 30.23 in WSW 5.4 mph 8.1 mph 44 % 0.00 in 0.0 W/m2 CLR
21:36 31.3 °F 11.4 °F 30.23 in West 7.4 mph 11.5 mph 43 % 0.00 in 0.0 W/m2 CLR
21:41 31.1 °F 11.7 °F 30.23 in WNW 8.2 mph 11.5 mph 44 % 0.00 in 0.0 W/m2 CLR
21:47 31.0 °F 11.6 °F 30.24 in West 6.0 mph 8.1 mph 44 % 0.00 in 0.0 W/m2 CLR
21:52 30.8 °F 11.4 °F 30.24 in West 7.7 mph 16.1 mph 44 % 0.00 in 0.0 W/m2 CLR
21:57 30.7 °F 11.3 °F 30.24 in West 9.8 mph 12.7 mph 44 % 0.00 in 0.0 W/m2 CLR
22:02 30.7 °F 10.8 °F 30.24 in West 8.0 mph 12.7 mph 43 % 0.00 in 0.0 W/m2 CLR
22:07 30.5 °F 10.6 °F 30.24 in West 6.5 mph 10.4 mph 43 % 0.00 in 0.0 W/m2 CLR
22:12 30.3 °F 11.0 °F 30.24 in WSW 2.4 mph 6.0 mph 44 % 0.00 in 0.0 W/m2 CLR
22:17 30.1 °F 10.8 °F 30.25 in WNW 9.2 mph 12.7 mph 44 % 0.00 in 0.0 W/m2 CLR
22:22 30.2 °F 10.4 °F 30.25 in WNW 5.4 mph 11.5 mph 43 % 0.00 in 0.0 W/m2 CLR
22:27 30.2 °F 10.4 °F 30.25 in West 7.3 mph 11.5 mph 43 % 0.00 in 0.0 W/m2 CLR
22:32 30.1 °F 10.3 °F 30.25 in WNW 3.8 mph 6.9 mph 43 % 0.00 in 0.0 W/m2 CLR
22:37 30.0 °F 9.6 °F 30.25 in West 5.2 mph 14.0 mph 42 % 0.00 in 0.0 W/m2 CLR
22:42 30.0 °F 10.2 °F 30.25 in WNW 8.1 mph 11.5 mph 43 % 0.00 in 0.0 W/m2 CLR
22:47 29.8 °F 10.0 °F 30.25 in WNW 5.4 mph 8.0 mph 43 % 0.00 in 0.0 W/m2 CLR
22:52 29.7 °F 9.9 °F 30.25 in West 3.4 mph 6.9 mph 43 % 0.00 in 0.0 W/m2 CLR
22:57 29.6 °F 10.3 °F 30.25 in West 4.8 mph 10.0 mph 44 % 0.00 in 0.0 W/m2 CLR
23:02 29.6 °F 9.8 °F 30.25 in West 4.6 mph 13.8 mph 43 % 0.00 in 0.0 W/m2 CLR
23:07 29.6 °F 9.8 °F 30.25 in WNW 11.0 mph 16.1 mph 43 % 0.00 in 0.0 W/m2 CLR
23:12 29.5 °F 9.7 °F 30.25 in WNW 9.7 mph 14.0 mph 43 % 0.00 in 0.0 W/m2 CLR
23:17 29.4 °F 9.6 °F 30.25 in West 4.3 mph 9.2 mph 43 % 0.00 in 0.0 W/m2 CLR
23:22 29.4 °F 9.1 °F 30.25 in West 11.6 mph 18.0 mph 42 % 0.00 in 0.0 W/m2 CLR
23:27 29.4 °F 9.1 °F 30.25 in WNW 4.0 mph 9.2 mph 42 % 0.00 in 0.0 W/m2 CLR
23:32 29.3 °F 9.0 °F 30.25 in West 4.6 mph 11.0 mph 42 % 0.00 in 0.0 W/m2 CLR
23:37 29.1 °F 8.8 °F 30.26 in WNW 4.1 mph 6.9 mph 42 % 0.00 in 0.0 W/m2 CLR
23:42 28.9 °F 9.2 °F 30.26 in WNW 4.0 mph 11.5 mph 43 % 0.00 in 0.0 W/m2 CLR
23:47 28.8 °F 9.1 °F 30.26 in WNW 3.4 mph 5.8 mph 43 % 0.00 in 0.0 W/m2 CLR
23:52 28.7 °F 9.0 °F 30.26 in West 5.1 mph 10.4 mph 43 % 0.00 in 0.0 W/m2 CLR
23:57 28.6 °F 9.4 °F 30.25 in West 3.5 mph 6.9 mph 44 % 0.00 in 0.0 W/m2 CLR
Air Products Campus Weather
Compliments of Weather Underground - 3.5 mb